Time;durP1;ratioP1;P1;durP2;ratioP2;P2;SDS_P1;SDS_P2;PMS_P1;PMS_P2;Temp;Humidity;BMP_temperature;BMP_pressure;BME280_temperature;BME280_humidity;BME280_pressure;Samples;Min_cycle;Max_cycle;Signal;HPM_P1;HPM_P2
2023/06/19 00:02:01;;;;;;;11.23;10.13;;;;;;;13.98;nan;100681.53;4981635;28;20052;-82
2023/06/19 00:04:29;;;;;;;13.75;10.85;;;;;;;13.95;nan;100674.50;5002000;28;20101;-81
2023/06/19 00:06:56;;;;;;;12.57;10.60;;;;;;;13.91;nan;100675.56;5000560;28;20121;-81
2023/06/19 00:09:23;;;;;;;12.55;11.18;;;;;;;13.97;nan;100671.84;5007092;28;20113;-82
2023/06/19 00:11:50;;;;;;;12.60;11.13;;;;;;;13.94;nan;100670.13;4991342;28;20121;-82
2023/06/19 00:14:18;;;;;;;12.27;10.98;;;;;;;13.91;nan;100672.03;4996260;28;20117;-81
2023/06/19 00:16:45;;;;;;;12.40;11.10;;;;;;;13.83;nan;100668.75;4995250;28;20080;-81
2023/06/19 00:19:12;;;;;;;14.02;11.05;;;;;;;13.78;nan;100669.78;4996695;28;20093;-82
2023/06/19 00:21:40;;;;;;;12.38;11.07;;;;;;;13.76;nan;100676.06;5013962;28;20448;-82
2023/06/19 00:24:07;;;;;;;13.52;12.13;;;;;;;13.70;nan;100671.81;5005924;28;20736;-82
2023/06/19 00:26:34;;;;;;;12.35;10.82;;;;;;;13.70;nan;100674.47;4996553;28;20040;-81
2023/06/19 00:29:01;;;;;;;12.65;10.95;;;;;;;13.62;nan;100673.88;4999709;28;20105;-83
2023/06/19 00:31:31;;;;;;;12.32;11.02;;;;;;;13.63;nan;100680.06;5007425;28;20097;-82
2023/06/19 00:34:00;;;;;;;12.20;10.57;;;;;;;13.60;nan;100678.34;5006271;28;20042;-82
2023/06/19 00:36:27;;;;;;;14.18;12.63;;;;;;;13.61;nan;100684.53;5012567;28;20038;-82
2023/06/19 00:38:54;;;;;;;14.27;11.70;;;;;;;13.61;nan;100674.78;5015087;28;20116;-82
2023/06/19 00:41:21;;;;;;;12.93;11.18;;;;;;;13.67;nan;100681.69;4988594;28;20046;-81
2023/06/19 00:43:48;;;;;;;12.55;10.98;;;;;;;13.65;nan;100680.88;5033888;28;20465;-81
2023/06/19 00:46:18;;;;;;;13.07;10.77;;;;;;;13.63;nan;100688.03;5004507;28;20455;-82
2023/06/19 00:48:45;;;;;;;12.50;11.07;;;;;;;13.64;nan;100684.44;5004614;28;20030;-82
2023/06/19 00:51:12;;;;;;;12.75;11.20;;;;;;;13.64;nan;100685.31;5001334;28;20041;-83
2023/06/19 00:53:39;;;;;;;12.85;11.07;;;;;;;13.57;nan;100680.25;4984445;28;20049;-83
2023/06/19 00:56:06;;;;;;;12.65;11.32;;;;;;;13.50;nan;100677.78;5004803;28;20034;-83
2023/06/19 00:58:33;;;;;;;12.70;10.80;;;;;;;13.43;nan;100684.19;4975700;28;20045;-83
2023/06/19 01:01:00;;;;;;;11.85;10.65;;;;;;;13.45;nan;100682.38;5008529;28;20565;-82
2023/06/19 01:03:35;;;;;;;12.95;11.48;;;;;;;13.43;nan;100691.28;5008631;28;20039;-83
2023/06/19 01:06:06;;;;;;;11.85;10.43;;;;;;;13.36;nan;100687.09;5013543;28;20407;-82
2023/06/19 01:08:53;;;;;;;13.00;11.32;;;;;;;13.31;nan;100687.25;4983524;28;20051;-83
2023/06/19 01:11:23;;;;;;;13.10;10.80;;;;;;;13.27;nan;100688.25;5019336;28;20087;-83
2023/06/19 01:13:58;;;;;;;13.07;11.75;;;;;;;13.21;nan;100685.81;4998481;28;20042;-83
2023/06/19 01:16:26;;;;;;;12.90;11.50;;;;;;;13.23;nan;100678.66;4997405;28;20030;-82
2023/06/19 01:18:54;;;;;;;12.77;11.30;;;;;;;13.20;nan;100668.13;4985459;28;20044;-82
2023/06/19 01:21:21;;;;;;;13.93;11.43;;;;;;;13.18;nan;100668.16;5001114;28;20042;-83
2023/06/19 01:23:47;;;;;;;12.40;11.07;;;;;;;13.14;nan;100663.00;4992601;28;20049;-83
2023/06/19 01:26:17;;;;;;;12.52;11.23;;;;;;;13.16;nan;100663.81;4977304;28;20038;-83
2023/06/19 01:28:44;;;;;;;13.07;11.52;;;;;;;13.19;nan;100655.75;4990140;28;20050;-82
2023/06/19 01:31:16;;;;;;;13.05;10.75;;;;;;;13.13;nan;100661.28;4985039;28;20052;-82
2023/06/19 01:33:44;;;;;;;12.68;10.90;;;;;;;13.14;nan;100655.03;5001354;28;20550;-83
2023/06/19 01:36:11;;;;;;;12.82;11.02;;;;;;;13.08;nan;100647.28;4998452;28;20670;-83
2023/06/19 01:38:39;;;;;;;14.52;11.88;;;;;;;13.10;nan;100650.72;4983202;28;20556;-82
2023/06/19 01:41:07;;;;;;;13.75;11.95;;;;;;;13.07;nan;100645.53;5010900;28;20045;-82
2023/06/19 01:43:34;;;;;;;13.70;12.00;;;;;;;13.07;nan;100646.41;4975841;28;20072;-82
2023/06/19 01:46:01;;;;;;;13.25;11.85;;;;;;;13.04;nan;100645.66;4995923;28;20034;-82
2023/06/19 01:48:30;;;;;;;15.45;12.02;;;;;;;12.99;nan;100653.72;5016536;28;20043;-83
2023/06/19 01:50:57;;;;;;;13.10;11.70;;;;;;;13.01;nan;100645.72;4998207;28;20052;-82
2023/06/19 01:53:24;;;;;;;13.35;11.95;;;;;;;13.10;nan;100654.25;5012395;28;20034;-83
2023/06/19 01:55:51;;;;;;;13.60;12.07;;;;;;;13.07;nan;100648.19;5001359;28;20042;-82
2023/06/19 01:58:18;;;;;;;12.95;11.63;;;;;;;13.06;nan;100646.47;5011856;28;20452;-83
2023/06/19 02:00:46;;;;;;;14.88;12.45;;;;;;;12.96;nan;100646.75;5026944;28;20108;-83
2023/06/19 02:03:13;;;;;;;14.10;12.60;;;;;;;13.01;nan;100640.41;4991912;28;20129;-82
2023/06/19 02:05:41;;;;;;;14.48;12.98;;;;;;;12.99;nan;100640.47;5008858;28;20117;-82
2023/06/19 02:08:08;;;;;;;13.65;11.73;;;;;;;12.99;nan;100637.81;5010934;28;20481;-82
2023/06/19 02:10:35;;;;;;;11.77;10.40;;;;;;;13.01;nan;100637.75;4988017;28;20153;-84
2023/06/19 02:13:02;;;;;;;12.85;11.48;;;;;;;12.94;nan;100637.94;5015643;28;20089;-82
2023/06/19 02:15:29;;;;;;;13.60;11.40;;;;;;;13.00;nan;100634.25;5000192;28;20614;-83
2023/06/19 02:17:56;;;;;;;14.90;11.55;;;;;;;12.90;nan;100635.44;5006149;28;20126;-82
2023/06/19 02:20:24;;;;;;;14.98;11.18;;;;;;;12.95;nan;100631.75;5009499;28;20101;-83
2023/06/19 02:22:51;;;;;;;12.85;11.38;;;;;;;12.89;nan;100631.94;5010444;28;20097;-82
2023/06/19 02:25:19;;;;;;;16.13;11.57;;;;;;;12.88;nan;100634.63;5006023;28;20117;-82
2023/06/19 02:27:46;;;;;;;13.15;11.75;;;;;;;12.79;nan;100630.47;5006431;28;20108;-82
2023/06/19 02:30:13;;;;;;;14.15;12.02;;;;;;;12.82;nan;100625.06;4993354;28;20106;-83
2023/06/19 02:32:41;;;;;;;12.45;11.15;;;;;;;12.80;nan;100623.38;5000473;28;20116;-83
2023/06/19 02:35:09;;;;;;;12.90;11.60;;;;;;;12.87;nan;100623.16;5019000;28;20094;-82
2023/06/19 02:37:36;;;;;;;13.55;11.50;;;;;;;12.83;nan;100626.81;5011355;28;20153;-82
2023/06/19 02:40:05;;;;;;;12.98;11.68;;;;;;;12.82;nan;100622.41;5020760;28;20112;-82
2023/06/19 02:42:32;;;;;;;13.68;11.98;;;;;;;12.90;nan;100620.41;5003903;28;20098;-83
2023/06/19 02:45:03;;;;;;;12.55;11.00;;;;;;;12.87;nan;100617.84;5009435;28;20110;-82
2023/06/19 02:47:31;;;;;;;12.57;10.98;;;;;;;12.86;nan;100618.78;4985782;28;20504;-82
2023/06/19 02:49:59;;;;;;;13.52;12.13;;;;;;;12.89;nan;100621.31;5019755;28;20101;-83
2023/06/19 02:52:27;;;;;;;15.00;11.38;;;;;;;12.86;nan;100612.56;5008294;28;20547;-83
2023/06/19 02:54:54;;;;;;;12.05;10.57;;;;;;;12.87;nan;100611.69;5013218;28;20120;-81
2023/06/19 02:57:21;;;;;;;15.65;12.35;;;;;;;12.87;nan;100609.03;5024434;28;20104;-82
2023/06/19 02:59:48;;;;;;;13.68;11.63;;;;;;;12.87;nan;100606.38;5033336;28;20181;-83
2023/06/19 03:02:15;;;;;;;13.38;11.98;;;;;;;12.84;nan;100612.63;5021295;28;20179;-83
2023/06/19 03:04:42;;;;;;;13.48;12.13;;;;;;;12.81;nan;100609.22;5019007;28;20766;-82
2023/06/19 03:07:09;;;;;;;13.07;11.77;;;;;;;12.77;nan;100608.41;5003189;28;20090;-83
2023/06/19 03:09:36;;;;;;;13.10;11.70;;;;;;;12.83;nan;100615.31;5017896;28;20109;-83
2023/06/19 03:12:04;;;;;;;14.15;12.38;;;;;;;12.88;nan;100614.28;5008030;28;20113;-84
2023/06/19 03:14:31;;;;;;;14.30;12.75;;;;;;;12.87;nan;100612.56;5017121;28;20571;-83
2023/06/19 03:16:58;;;;;;;13.45;11.50;;;;;;;12.89;nan;100616.03;5009010;28;20034;-84
2023/06/19 03:19:25;;;;;;;13.55;12.15;;;;;;;12.94;nan;100613.22;4998719;28;20579;-83
2023/06/19 03:21:52;;;;;;;12.90;11.60;;;;;;;12.96;nan;100612.25;5007698;28;20104;-84
2023/06/19 03:24:19;;;;;;;14.63;11.80;;;;;;;13.04;nan;100620.00;4997573;28;20476;-84
2023/06/19 03:26:46;;;;;;;12.82;11.45;;;;;;;13.07;nan;100614.56;5011549;28;20117;-83
2023/06/19 03:29:13;;;;;;;13.70;12.13;;;;;;;13.08;nan;100621.59;4982134;28;20133;-83
2023/06/19 03:31:40;;;;;;;13.50;11.90;;;;;;;13.13;nan;100613.53;4986422;28;20674;-83
2023/06/19 03:34:07;;;;;;;12.27;11.07;;;;;;;13.19;nan;100621.25;4986609;28;20508;-83
2023/06/19 03:36:33;;;;;;;13.30;11.90;;;;;;;13.27;nan;100627.22;4999326;28;20030;-83
2023/06/19 03:39:04;;;;;;;13.82;12.43;;;;;;;13.28;nan;100626.31;4992558;28;20121;-84
2023/06/19 03:41:31;;;;;;;13.25;11.52;;;;;;;13.33;nan;100621.72;4980966;28;20038;-84
2023/06/19 03:43:58;;;;;;;13.50;11.70;;;;;;;13.35;nan;100630.50;5008018;28;20506;-82
2023/06/19 03:46:25;;;;;;;12.27;10.98;;;;;;;13.35;nan;100635.81;5000513;28;20036;-82
2023/06/19 03:48:53;;;;;;;13.32;11.57;;;;;;;13.37;nan;100630.44;5012523;28;20089;-84
2023/06/19 03:51:21;;;;;;;12.68;11.38;;;;;;;13.41;nan;100630.31;4991764;28;20094;-82
2023/06/19 03:53:50;;;;;;;13.30;11.90;;;;;;;13.48;nan;100637.16;5007640;28;20093;-82
2023/06/19 03:56:24;;;;;;;13.27;11.88;;;;;;;13.48;nan;100639.81;5009950;28;20128;-82
2023/06/19 03:58:52;;;;;;;12.95;11.55;;;;;;;13.55;nan;100642.28;4996475;28;20149;-82
2023/06/19 04:01:19;;;;;;;13.60;12.20;;;;;;;13.62;nan;100639.38;4996409;28;20105;-83
2023/06/19 04:03:47;;;;;;;13.25;11.73;;;;;;;13.77;nan;100645.94;4993538;28;20498;-83
2023/06/19 04:06:15;;;;;;;12.82;10.82;;;;;;;13.88;nan;100646.47;4992258;28;20137;-82
2023/06/19 04:08:44;;;;;;;13.35;11.95;;;;;;;13.95;nan;100645.28;5021096;28;20452;-84
2023/06/19 04:11:12;;;;;;;13.50;11.30;;;;;;;14.08;nan;100643.09;4997357;28;20129;-83
2023/06/19 04:13:40;;;;;;;14.50;13.00;;;;;;;14.05;nan;100646.75;5022237;28;20121;-81
2023/06/19 04:16:08;;;;;;;13.38;11.98;;;;;;;14.15;nan;100638.44;4988934;28;20133;-83
2023/06/19 04:18:35;;;;;;;14.55;13.00;;;;;;;14.23;nan;100641.69;4996612;28;20101;-81
2023/06/19 04:21:03;;;;;;;12.85;11.45;;;;;;;14.42;nan;100641.88;5004992;28;20118;-82
2023/06/19 04:23:30;;;;;;;13.00;11.73;;;;;;;14.52;nan;100638.84;5014115;28;20120;-83
2023/06/19 04:25:57;;;;;;;12.98;11.23;;;;;;;14.68;nan;100644.47;5033002;28;20113;-82
2023/06/19 04:28:24;;;;;;;14.05;12.43;;;;;;;14.89;nan;100637.50;5008104;28;20030;-82
2023/06/19 04:30:59;;;;;;;13.65;12.35;;;;;;;15.01;nan;100644.97;5018788;28;20523;-82
2023/06/19 04:33:29;;;;;;;14.32;12.82;;;;;;;15.20;nan;100645.97;5017467;28;20394;-82
2023/06/19 04:35:56;;;;;;;13.25;11.85;;;;;;;15.41;nan;100640.75;5005522;28;20112;-82
2023/06/19 04:38:24;;;;;;;13.38;11.98;;;;;;;15.60;nan;100635.53;5025866;28;20040;-82
2023/06/19 04:40:52;;;;;;;13.40;12.10;;;;;;;15.76;nan;100618.88;5007651;28;20113;-82
2023/06/19 04:43:19;;;;;;;13.80;12.30;;;;;;;15.90;nan;100626.28;5007765;28;20549;-83
2023/06/19 04:45:46;;;;;;;13.40;12.10;;;;;;;16.11;nan;100627.13;5000935;28;20116;-81
2023/06/19 04:48:13;;;;;;;12.73;11.40;;;;;;;16.24;nan;100628.34;5019177;28;20048;-82
2023/06/19 04:50:40;;;;;;;15.85;12.57;;;;;;;16.25;nan;100631.88;5020936;28;20041;-81
2023/06/19 04:53:07;;;;;;;13.13;11.68;;;;;;;16.38;nan;100627.69;5032783;28;20033;-82
2023/06/19 04:55:34;;;;;;;12.30;11.10;;;;;;;16.42;nan;100628.44;5000021;28;20033;-84
2023/06/19 04:58:01;;;;;;;13.35;12.05;;;;;;;16.47;nan;100629.94;4996453;28;20029;-82
2023/06/19 05:00:28;;;;;;;13.68;12.38;;;;;;;16.57;nan;100627.75;5012468;28;20048;-82
2023/06/19 05:02:59;;;;;;;12.57;11.27;;;;;;;16.57;nan;100633.09;5000424;28;20077;-82
2023/06/19 05:05:30;;;;;;;13.73;12.32;;;;;;;16.61;nan;100635.53;4993552;28;20164;-81
2023/06/19 05:07:57;;;;;;;13.95;11.88;;;;;;;16.67;nan;100637.06;4996168;28;20118;-82
2023/06/19 05:10:24;;;;;;;13.13;11.73;;;;;;;16.72;nan;100636.88;4994281;28;20097;-81
2023/06/19 05:12:51;;;;;;;14.57;13.13;;;;;;;16.78;nan;100637.44;4988381;28;20496;-81
2023/06/19 05:15:18;;;;;;;12.48;11.27;;;;;;;16.81;nan;100639.97;5005700;28;20101;-82
2023/06/19 05:17:46;;;;;;;14.00;12.50;;;;;;;16.91;nan;100631.56;5013391;28;20089;-82
2023/06/19 05:20:13;;;;;;;13.98;12.57;;;;;;;16.95;nan;100634.00;5015753;28;20133;-82
2023/06/19 05:22:40;;;;;;;12.55;11.30;;;;;;;16.98;nan;100641.84;5009859;28;20117;-82
2023/06/19 05:25:08;;;;;;;12.30;11.10;;;;;;;17.02;nan;100637.25;5008760;28;20120;-81
2023/06/19 05:27:35;;;;;;;13.88;12.38;;;;;;;17.05;nan;100639.75;5010686;28;20507;-81
2023/06/19 05:30:03;;;;;;;14.27;12.77;;;;;;;17.09;nan;100644.03;4992235;28;20128;-83
2023/06/19 05:32:30;;;;;;;13.35;12.05;;;;;;;17.12;nan;100650.06;4995433;28;20120;-82
2023/06/19 05:34:57;;;;;;;12.77;11.57;;;;;;;17.15;nan;100657.97;4989790;28;20591;-82
2023/06/19 05:37:24;;;;;;;14.82;13.32;;;;;;;17.35;nan;100662.31;5010885;28;20117;-82
2023/06/19 05:39:52;;;;;;;13.65;12.25;;;;;;;17.35;nan;100656.13;5003006;28;20113;-82
2023/06/19 05:42:19;;;;;;;13.60;11.60;;;;;;;17.40;nan;100667.44;4993888;28;20113;-82
2023/06/19 05:44:46;;;;;;;13.40;12.00;;;;;;;17.48;nan;100661.72;5003193;28;20448;-83
2023/06/19 05:47:13;;;;;;;13.90;12.45;;;;;;;17.56;nan;100659.53;4995443;28;20112;-81
2023/06/19 05:49:40;;;;;;;13.07;11.85;;;;;;;17.65;nan;100670.63;4988932;28;20097;-83
2023/06/19 05:52:08;;;;;;;14.55;13.10;;;;;;;17.76;nan;100667.47;5017655;28;20100;-81
2023/06/19 05:54:35;;;;;;;14.25;12.85;;;;;;;17.89;nan;100657.00;5003094;28;20129;-82
2023/06/19 05:57:02;;;;;;;13.23;11.82;;;;;;;17.92;nan;100657.75;5020232;28;20089;-82
2023/06/19 05:59:29;;;;;;;14.10;12.80;;;;;;;17.99;nan;100651.16;4990431;28;20116;-81
2023/06/19 06:01:56;;;;;;;13.20;12.02;;;;;;;18.04;nan;100647.34;4989722;28;20076;-82
2023/06/19 06:04:23;;;;;;;13.50;12.20;;;;;;;18.13;nan;100652.22;5006634;28;20112;-82
2023/06/19 06:06:51;;;;;;;12.95;11.73;;;;;;;18.18;nan;100655.53;5005661;28;20105;-82
2023/06/19 06:09:18;;;;;;;12.93;11.73;;;;;;;18.23;nan;100645.44;4996460;28;20121;-81
2023/06/19 06:11:45;;;;;;;15.10;13.60;;;;;;;18.23;nan;100640.97;4996605;28;20117;-82
2023/06/19 06:14:13;;;;;;;14.48;13.07;;;;;;;18.31;nan;100651.25;4995120;28;20137;-81
2023/06/19 06:16:40;;;;;;;14.57;13.13;;;;;;;18.36;nan;100645.69;4996421;28;20124;-82
2023/06/19 06:19:07;;;;;;;12.60;11.45;;;;;;;18.40;nan;100652.59;5011152;28;20144;-82
2023/06/19 06:21:35;;;;;;;13.80;12.43;;;;;;;18.45;nan;100653.22;4991519;28;20132;-83
2023/06/19 06:24:03;;;;;;;15.00;13.50;;;;;;;18.54;nan;100661.63;5003115;28;20098;-83
2023/06/19 06:26:31;;;;;;;14.35;12.95;;;;;;;18.51;nan;100653.75;5007350;28;20097;-82
2023/06/19 06:28:58;;;;;;;15.73;14.23;;;;;;;18.53;nan;100657.22;5014251;28;20090;-82
2023/06/19 06:31:25;;;;;;;13.88;12.57;;;;;;;18.59;nan;100655.16;5021176;28;20097;-82
2023/06/19 06:33:52;;;;;;;13.32;12.13;;;;;;;18.61;nan;100654.13;4998624;28;20583;-82
2023/06/19 06:36:19;;;;;;;13.20;11.90;;;;;;;18.65;nan;100657.50;4994682;28;20116;-83
2023/06/19 06:39:01;;;;;;;14.27;12.88;;;;;;;18.69;nan;100661.78;5006658;28;20045;-83
2023/06/19 06:41:27;;;;;;;14.55;13.20;;;;;;;18.72;nan;100653.56;5020856;28;20038;-83
2023/06/19 06:43:55;;;;;;;14.77;13.40;;;;;;;18.78;nan;100653.25;4986865;28;20041;-83
2023/06/19 06:46:22;;;;;;;13.75;12.52;;;;;;;18.82;nan;100663.69;5000868;28;20084;-83
2023/06/19 06:48:49;;;;;;;14.02;12.60;;;;;;;18.85;nan;100665.34;4998018;28;20048;-83
2023/06/19 06:51:16;;;;;;;14.75;13.25;;;;;;;18.79;nan;100663.00;4994971;28;20052;-82
2023/06/19 06:53:43;;;;;;;14.02;12.55;;;;;;;18.79;nan;100663.88;5006158;28;20046;-84
2023/06/19 06:56:10;;;;;;;13.95;12.65;;;;;;;18.84;nan;100660.94;5002773;28;20515;-82
2023/06/19 06:58:38;;;;;;;14.95;13.43;;;;;;;18.88;nan;100664.31;5002052;28;20029;-83
2023/06/19 07:01:05;;;;;;;12.52;11.32;;;;;;;18.83;nan;100668.13;5009332;28;20037;-83
2023/06/19 07:03:33;;;;;;;14.15;12.70;;;;;;;18.84;nan;100668.97;5011065;28;20036;-83
2023/06/19 07:06:02;;;;;;;14.30;13.00;;;;;;;18.86;nan;100676.91;5010054;28;20508;-82
2023/06/19 07:08:29;;;;;;;14.23;12.93;;;;;;;18.82;nan;100676.22;4988211;28;20033;-81
2023/06/19 07:10:56;;;;;;;14.07;12.73;;;;;;;18.82;nan;100677.06;4978504;28;20041;-83
2023/06/19 07:13:24;;;;;;;14.18;12.85;;;;;;;18.84;nan;100683.22;4993240;28;20055;-82
2023/06/19 07:15:51;;;;;;;14.13;12.70;;;;;;;18.88;nan;100680.38;4984859;28;20503;-82
2023/06/19 07:18:18;;;;;;;13.32;12.02;;;;;;;18.92;nan;100690.84;5003857;28;20030;-84
2023/06/19 07:20:45;;;;;;;13.57;12.38;;;;;;;18.97;nan;100690.56;4995664;28;20185;-82
2023/06/19 07:23:12;;;;;;;12.90;11.70;;;;;;;19.02;nan;100689.38;5004393;28;20037;-82
2023/06/19 07:25:38;;;;;;;13.30;12.05;;;;;;;19.04;nan;100700.88;4989472;28;20076;-83
2023/06/19 07:28:05;;;;;;;14.93;13.60;;;;;;;19.06;nan;100700.78;5000790;28;20488;-83
2023/06/19 07:30:32;;;;;;;13.43;12.23;;;;;;;19.10;nan;100703.22;4991392;28;20047;-82
2023/06/19 07:32:59;;;;;;;15.85;14.10;;;;;;;19.14;nan;100698.53;4999497;28;20042;-83
2023/06/19 07:35:26;;;;;;;13.90;12.60;;;;;;;19.17;nan;100703.75;5010528;28;20037;-83
2023/06/19 07:37:53;;;;;;;13.80;12.50;;;;;;;19.21;nan;100705.28;5002527;28;20060;-82
2023/06/19 07:40:20;;;;;;;12.88;11.68;;;;;;;19.23;nan;100706.06;5002726;28;20059;-83
2023/06/19 07:42:47;;;;;;;15.07;13.57;;;;;;;19.29;nan;100704.88;5011442;28;20038;-82
2023/06/19 07:45:14;;;;;;;13.40;12.20;;;;;;;19.30;nan;100701.22;4997228;28;20038;-84
2023/06/19 07:47:41;;;;;;;13.52;12.20;;;;;;;19.32;nan;100707.38;5001435;28;20041;-83
2023/06/19 07:50:09;;;;;;;13.77;12.38;;;;;;;19.27;nan;100704.09;5007566;28;20060;-84
2023/06/19 07:52:36;;;;;;;15.48;13.95;;;;;;;19.22;nan;100700.78;5028696;28;20059;-83
2023/06/19 07:55:03;;;;;;;15.13;13.20;;;;;;;19.21;nan;100693.72;5006328;28;20052;-83
2023/06/19 07:57:30;;;;;;;15.93;14.40;;;;;;;19.18;nan;100693.91;5003928;28;20037;-83
2023/06/19 07:59:57;;;;;;;14.43;13.02;;;;;;;19.19;nan;100691.13;5021836;28;20042;-84
2023/06/19 08:02:24;;;;;;;15.38;13.77;;;;;;;19.27;nan;100699.59;4982612;28;20390;-82
2023/06/19 08:04:51;;;;;;;15.70;14.20;;;;;;;19.28;nan;100697.78;5015525;28;20041;-83
2023/06/19 08:07:18;;;;;;;14.52;13.15;;;;;;;19.32;nan;100693.97;5003965;28;20060;-83
2023/06/19 08:09:45;;;;;;;15.10;13.70;;;;;;;19.35;nan;100699.19;5015238;28;20038;-83
2023/06/19 08:12:17;;;;;;;16.13;14.63;;;;;;;19.50;nan;100692.06;5028110;28;20087;-83
2023/06/19 08:14:44;;;;;;;15.10;13.52;;;;;;;19.41;nan;100693.44;5009670;28;20036;-83
2023/06/19 08:17:11;;;;;;;14.60;13.20;;;;;;;19.47;nan;100693.09;4997520;28;20509;-85
2023/06/19 08:19:39;;;;;;;15.40;14.00;;;;;;;19.45;nan;100691.47;5005733;28;20044;-83
2023/06/19 08:22:06;;;;;;;14.60;13.20;;;;;;;19.45;nan;100700.38;5005516;28;20037;-85
2023/06/19 08:24:35;;;;;;;14.98;13.55;;;;;;;19.53;nan;100691.91;5013117;28;20038;-84
2023/06/19 08:27:02;;;;;;;14.32;13.00;;;;;;;19.53;nan;100690.09;5008016;28;20437;-84
2023/06/19 08:29:29;;;;;;;14.85;13.50;;;;;;;19.57;nan;100696.16;5004405;28;20033;-83
2023/06/19 08:31:56;;;;;;;15.93;14.25;;;;;;;19.62;nan;100700.31;4991031;28;20038;-84
2023/06/19 08:34:23;;;;;;;15.55;13.95;;;;;;;19.78;nan;100704.78;4994913;28;20044;-84
2023/06/19 08:36:50;;;;;;;14.30;12.95;;;;;;;19.79;nan;100704.69;4996230;28;20037;-83
2023/06/19 08:39:18;;;;;;;15.18;13.68;;;;;;;19.82;nan;100704.50;4995487;28;20025;-83
2023/06/19 08:41:45;;;;;;;14.52;13.13;;;;;;;19.93;nan;100709.28;5009237;28;20041;-83
2023/06/19 08:44:11;;;;;;;14.85;13.45;;;;;;;20.10;nan;100700.22;4993778;28;20038;-83
2023/06/19 08:46:40;;;;;;;14.50;12.95;;;;;;;20.10;nan;100703.78;4997091;28;20043;-83
2023/06/19 08:49:10;;;;;;;14.57;13.18;;;;;;;20.33;nan;100696.16;4985935;28;20042;-84
2023/06/19 08:51:37;;;;;;;14.18;12.88;;;;;;;20.33;nan;100704.19;4976118;28;20045;-83
2023/06/19 08:54:05;;;;;;;13.82;12.57;;;;;;;20.40;nan;100701.06;5013009;28;20045;-83
2023/06/19 08:56:34;;;;;;;14.23;12.85;;;;;;;20.40;nan;100701.06;5016565;28;20038;-83
2023/06/19 08:59:11;;;;;;;14.18;12.85;;;;;;;20.44;nan;100699.09;4985123;28;20048;-83
2023/06/19 09:01:38;;;;;;;14.23;12.77;;;;;;;20.59;nan;100702.66;4988378;28;20038;-83
2023/06/19 09:04:12;;;;;;;13.93;12.73;;;;;;;20.73;nan;100698.16;4990440;28;20050;-83
2023/06/19 09:06:50;;;;;;;13.82;12.45;;;;;;;20.71;nan;100700.09;5009803;28;20044;-83
2023/06/19 09:09:20;;;;;;;13.80;12.50;;;;;;;20.82;nan;100703.91;5002372;28;20804;-83
2023/06/19 09:12:00;;;;;;;12.98;11.77;;;;;;;20.92;nan;100699.69;4995750;28;20037;-83
2023/06/19 09:14:39;;;;;;;13.93;12.63;;;;;;;21.13;nan;100698.34;4998188;28;20055;-83
2023/06/19 09:17:07;;;;;;;15.05;13.35;;;;;;;21.33;nan;100697.09;5012799;28;20045;-84
2023/06/19 09:19:37;;;;;;;13.75;12.38;;;;;;;21.64;nan;100698.66;4991338;28;20538;-83
2023/06/19 09:22:06;;;;;;;12.23;11.07;;;;;;;21.97;nan;100698.22;5002944;28;20034;-83
2023/06/19 09:24:35;;;;;;;13.82;11.75;;;;;;;22.21;nan;100690.34;4997315;28;20037;-83
2023/06/19 09:27:17;;;;;;;12.10;11.05;;;;;;;22.51;nan;100691.88;5002734;28;20041;-83
2023/06/19 09:29:47;;;;;;;12.40;11.23;;;;;;;22.77;nan;100682.81;5013358;28;20026;-84
2023/06/19 09:32:17;;;;;;;11.73;10.63;;;;;;;23.05;nan;100689.00;5002508;28;20037;-84
2023/06/19 09:34:44;;;;;;;12.32;11.32;;;;;;;23.11;nan;100688.53;5020582;28;20395;-83
2023/06/19 09:37:14;;;;;;;11.75;10.65;;;;;;;23.23;nan;100682.28;4998168;28;20046;-84
2023/06/19 09:39:42;;;;;;;11.40;10.40;;;;;;;23.36;nan;100687.59;4977412;28;20639;-83
2023/06/19 09:42:10;;;;;;;10.95;9.98;;;;;;;23.47;nan;100683.16;5015700;28;20056;-83
2023/06/19 09:44:44;;;;;;;10.95;9.95;;;;;;;23.52;nan;100689.06;5005726;28;20039;-83
2023/06/19 09:47:24;;;;;;;11.73;10.65;;;;;;;23.52;nan;100678.28;5004354;28;20119;-83
2023/06/19 09:49:55;;;;;;;10.55;9.50;;;;;;;23.49;nan;100694.69;5001663;28;20034;-83
2023/06/19 09:52:23;;;;;;;11.73;10.60;;;;;;;23.59;nan;100690.38;4994145;28;20045;-83
2023/06/19 09:54:51;;;;;;;11.55;10.55;;;;;;;23.48;nan;100694.81;4998619;28;20060;-84
2023/06/19 09:57:18;;;;;;;11.90;10.80;;;;;;;23.54;nan;100689.84;5009944;28;20045;-83
2023/06/19 09:59:49;;;;;;;10.35;9.52;;;;;;;23.45;nan;100695.00;4993536;28;20041;-83
2023/06/19 10:02:17;;;;;;;13.05;10.20;;;;;;;23.43;nan;100697.84;5013608;28;20042;-84
2023/06/19 10:04:46;;;;;;;13.35;11.77;;;;;;;23.51;nan;100706.22;4994234;28;20053;-84
2023/06/19 10:07:21;;;;;;;14.80;10.90;;;;;;;23.51;nan;100700.81;4975374;28;20046;-83
2023/06/19 10:09:59;;;;;;;11.20;10.20;;;;;;;23.50;nan;100696.41;4997413;28;20038;-83
2023/06/19 10:12:39;;;;;;;12.00;10.80;;;;;;;23.58;nan;100691.31;4993710;28;20075;-83
2023/06/19 10:15:11;;;;;;;12.20;11.05;;;;;;;23.63;nan;100692.81;4998896;28;20042;-83
2023/06/19 10:17:42;;;;;;;11.32;10.32;;;;;;;23.75;nan;100690.09;5001392;28;20034;-83
2023/06/19 10:20:25;;;;;;;11.25;10.20;;;;;;;23.67;nan;100687.09;4994480;28;20723;-84
2023/06/19 10:22:57;;;;;;;11.50;10.40;;;;;;;23.59;nan;100678.69;4977292;28;20041;-84
2023/06/19 10:25:24;;;;;;;10.60;9.70;;;;;;;23.48;nan;100676.78;5001907;28;20044;-83
2023/06/19 10:27:52;;;;;;;10.88;9.77;;;;;;;23.67;nan;100676.31;4992561;28;20044;-83
2023/06/19 10:30:19;;;;;;;11.68;10.52;;;;;;;23.55;nan;100672.69;4995002;28;20422;-84
2023/06/19 10:32:47;;;;;;;10.30;9.45;;;;;;;23.57;nan;100680.66;4992458;28;20041;-84
2023/06/19 10:35:15;;;;;;;10.50;9.60;;;;;;;23.62;nan;100675.78;4979598;28;20054;-84
2023/06/19 10:37:42;;;;;;;10.23;9.38;;;;;;;23.49;nan;100672.25;4973247;28;20400;-84
2023/06/19 10:40:10;;;;;;;9.95;9.13;;;;;;;23.44;nan;100661.81;5013787;28;20036;-83
2023/06/19 10:42:37;;;;;;;10.55;9.65;;;;;;;23.40;nan;100670.25;4971258;28;20042;-83
2023/06/19 10:45:06;;;;;;;10.88;9.88;;;;;;;23.36;nan;100663.34;4994858;28;20038;-83
2023/06/19 10:47:33;;;;;;;10.10;9.20;;;;;;;23.37;nan;100659.66;4984620;28;20044;-83
2023/06/19 10:50:00;;;;;;;10.75;9.68;;;;;;;23.34;nan;100658.06;5016029;28;20034;-84
2023/06/19 10:52:31;;;;;;;10.00;9.07;;;;;;;23.43;nan;100654.69;4992212;28;20045;-84
2023/06/19 10:54:58;;;;;;;9.75;8.88;;;;;;;23.30;nan;100654.75;5009423;28;20046;-83
2023/06/19 10:57:31;;;;;;;10.93;9.82;;;;;;;23.31;nan;100650.22;4989750;28;20216;-84
2023/06/19 10:59:59;;;;;;;11.15;10.15;;;;;;;23.27;nan;100646.88;4988258;28;20044;-84
2023/06/19 11:02:28;;;;;;;12.32;11.13;;;;;;;23.34;nan;100641.91;5000035;28;20045;-84
2023/06/19 11:04:55;;;;;;;11.05;10.02;;;;;;;23.18;nan;100635.91;4997937;28;20052;-82
2023/06/19 11:07:22;;;;;;;10.70;9.65;;;;;;;23.08;nan;100637.56;5001599;28;20034;-83
2023/06/19 11:09:49;;;;;;;11.43;10.32;;;;;;;23.06;nan;100626.03;5002708;28;20042;-83
2023/06/19 11:12:20;;;;;;;10.48;9.57;;;;;;;22.97;nan;100638.34;4981287;28;20046;-83
2023/06/19 11:14:48;;;;;;;11.55;10.48;;;;;;;22.75;nan;100629.06;4980685;28;20047;-83
2023/06/19 11:17:18;;;;;;;12.05;10.95;;;;;;;22.99;nan;100625.63;5007791;28;20048;-84
2023/06/19 11:19:45;;;;;;;11.57;10.48;;;;;;;23.05;nan;100624.31;5012894;28;20044;-83
2023/06/19 11:22:12;;;;;;;13.13;10.38;;;;;;;23.00;nan;100620.13;4994214;28;20057;-82
2023/06/19 11:24:48;;;;;;;11.13;10.13;;;;;;;23.07;nan;100608.91;4986764;28;20034;-83
2023/06/19 11:27:27;;;;;;;13.88;10.90;;;;;;;23.08;nan;100610.63;4979794;28;20053;-83
2023/06/19 11:29:58;;;;;;;11.40;10.30;;;;;;;23.15;nan;100609.19;5004871;28;20037;-84
2023/06/19 11:32:40;;;;;;;12.18;11.07;;;;;;;23.15;nan;100618.13;5015054;28;20090;-84